Time;durP1;ratioP1;P1;durP2;ratioP2;P2;SDS_P1;SDS_P2;PMS_P1;PMS_P2;Temp;Humidity;BMP_temperature;BMP_pressure;BME280_temperature;BME280_humidity;BME280_pressure;Samples;Min_cycle;Max_cycle;Signal;HPM_P1;HPM_P2
2022/06/14 00:02:28;;;;;;;9.38;4.90;;;;;;;6.40;95.24;102268.44;10452220;28;20492;-79
2022/06/14 00:07:29;;;;;;;7.05;4.30;;;;;;;6.27;94.82;102270.75;10450517;28;20064;-79
2022/06/14 00:12:29;;;;;;;7.95;4.53;;;;;;;6.20;94.20;102269.31;10456942;28;20094;-79
2022/06/14 00:17:30;;;;;;;13.13;5.90;;;;;;;6.19;95.16;102261.34;10461234;28;20068;-79
2022/06/14 00:22:32;;;;;;;7.65;4.78;;;;;;;6.12;95.01;102267.72;10450003;28;20565;-79
2022/06/14 00:27:32;;;;;;;;;;;;;;;5.96;94.82;102258.53;10433753;28;20496;-78
2022/06/14 00:32:33;;;;;;;9.05;5.82;;;;;;;5.90;95.62;102252.78;10442250;28;19933;-79
2022/06/14 00:37:33;;;;;;;7.82;3.75;;;;;;;5.83;95.78;102256.50;10430929;28;20086;-79
2022/06/14 00:42:34;;;;;;;8.73;4.32;;;;;;;5.77;96.55;102258.56;10437469;28;20040;-79
2022/06/14 00:48:15;;;;;;;16.60;4.45;;;;;;;5.76;96.66;102243.75;10445130;28;20056;-79
2022/06/14 00:53:20;;;;;;;7.72;4.20;;;;;;;5.67;96.44;102237.72;10384159;28;20086;-78
2022/06/14 00:58:24;;;;;;;15.30;4.85;;;;;;;5.70;97.76;102238.00;10408594;28;20033;-79
2022/06/14 01:03:29;;;;;;;7.70;3.38;;;;;;;5.64;97.73;102225.41;10438998;28;20510;-78
2022/06/14 01:08:30;;;;;;;8.38;3.85;;;;;;;5.53;97.21;102218.31;10465262;28;20072;-79
2022/06/14 01:13:30;;;;;;;13.15;4.90;;;;;;;5.50;97.08;102229.34;10440419;28;20040;-79
2022/06/14 01:18:31;;;;;;;10.18;4.88;;;;;;;5.36;97.57;102229.78;10441138;28;20080;-79
2022/06/14 01:23:31;;;;;;;11.95;4.43;;;;;;;5.30;97.10;102227.56;10440739;28;20135;-79
2022/06/14 01:28:32;;;;;;;14.25;4.35;;;;;;;5.32;98.52;102236.38;10410236;28;20045;-78
2022/06/14 01:33:41;;;;;;;10.85;5.32;;;;;;;5.38;98.96;102236.03;10455291;28;20480;-79
2022/06/14 01:38:42;;;;;;;11.25;4.78;;;;;;;5.39;98.89;102230.97;10390159;28;20172;-79
2022/06/14 01:43:55;;;;;;;13.75;5.75;;;;;;;5.28;98.60;102237.78;10464957;28;20051;-79
2022/06/14 01:54:35;;;;;;;12.02;6.80;;;;;;;5.17;100.00;102232.41;10480908;28;20044;-78
2022/06/14 01:59:53;;;;;;;11.77;4.68;;;;;;;5.21;100.00;102239.69;10483076;28;20055;-79
2022/06/14 02:05:15;;;;;;;13.50;7.13;;;;;;;5.11;99.59;102238.84;10464271;28;20499;-79
2022/06/14 02:10:24;;;;;;;17.10;5.57;;;;;;;5.10;99.56;102241.28;10482805;28;20056;-78
2022/06/14 02:15:41;;;;;;;14.18;5.43;;;;;;;5.13;100.00;102231.19;10423300;28;20045;-79
2022/06/14 02:21:00;;;;;;;13.50;6.75;;;;;;;5.16;100.00;102228.88;10448792;28;20098;-79
2022/06/14 02:26:06;;;;;;;18.58;7.03;;;;;;;5.07;100.00;102226.38;10491518;28;20392;-78
2022/06/14 02:31:09;;;;;;;19.63;7.20;;;;;;;5.10;100.00;102224.06;10455984;28;20607;-78
2022/06/14 02:36:13;;;;;;;13.60;8.30;;;;;;;4.97;100.00;102215.91;10428814;28;20044;-78
2022/06/14 02:41:21;;;;;;;19.85;7.95;;;;;;;4.92;100.00;102211.97;10446957;28;20051;-78
2022/06/14 02:46:35;;;;;;;13.13;6.72;;;;;;;4.90;100.00;102193.66;10367995;28;20037;-79
2022/06/14 02:51:44;;;;;;;11.48;7.63;;;;;;;4.76;100.00;102197.59;10424672;28;20044;-78
2022/06/14 02:56:51;;;;;;;13.00;6.43;;;;;;;4.79;99.91;102200.47;10470477;28;20396;-78
2022/06/14 03:01:58;;;;;;;12.60;6.38;;;;;;;4.78;100.00;102192.53;10450910;28;20542;-78
2022/06/14 03:07:13;;;;;;;17.40;7.85;;;;;;;4.62;100.00;102196.28;10437551;28;20136;-78
2022/06/14 03:12:49;;;;;;;17.70;7.35;;;;;;;4.62;100.00;102188.50;10446084;28;20517;-78
2022/06/14 03:18:01;;;;;;;10.88;5.78;;;;;;;4.47;100.00;102193.19;10441989;28;20047;-79
2022/06/14 03:23:05;;;;;;;;;;;;;;;4.49;100.00;102186.47;10453618;28;20069;-78
2022/06/14 03:28:08;;;;;;;13.60;6.65;;;;;;;4.46;100.00;102193.03;10446869;28;20369;-78
2022/06/14 03:33:22;;;;;;;14.05;5.18;;;;;;;4.41;100.00;102201.31;10403498;28;20131;-78
2022/06/14 03:38:22;;;;;;;14.45;6.13;;;;;;;4.37;100.00;102198.28;10417611;28;20369;-78
2022/06/14 03:43:23;;;;;;;13.45;6.85;;;;;;;4.34;100.00;102203.19;10446803;28;20048;-76
2022/06/14 03:48:23;;;;;;;11.60;5.32;;;;;;;4.43;100.00;102203.13;10444506;28;20132;-77
2022/06/14 03:53:37;;;;;;;18.92;9.30;;;;;;;4.47;100.00;102213.00;10453595;28;20089;-77
2022/06/14 03:58:38;;;;;;;16.05;7.28;;;;;;;4.51;100.00;102204.75;10465644;28;20045;-77
2022/06/14 04:04:03;;;;;;;19.17;9.43;;;;;;;4.59;100.00;102208.09;10445207;28;20049;-77
2022/06/14 04:09:09;;;;;;;15.07;7.13;;;;;;;4.68;100.00;102203.75;10455049;28;20380;-77
2022/06/14 04:14:34;;;;;;;11.65;7.85;;;;;;;4.73;100.00;102211.94;10482724;28;20043;-77
2022/06/14 04:19:56;;;;;;;18.20;6.07;;;;;;;4.87;100.00;102200.25;10427989;28;20052;-77
2022/06/14 04:25:20;;;;;;;;;;;;;;;5.24;100.00;102195.84;10484382;28;20040;-78
2022/06/14 04:30:26;;;;;;;12.20;7.85;;;;;;;5.61;100.00;102195.63;10465411;28;20321;-78
2022/06/14 04:35:45;;;;;;;15.15;6.57;;;;;;;5.86;100.00;102206.53;10440414;28;20045;-78
2022/06/14 04:40:53;;;;;;;14.60;6.93;;;;;;;6.21;100.00;102194.81;10457260;28;20441;-78
2022/06/14 04:46:00;;;;;;;12.68;6.40;;;;;;;6.59;100.00;102200.72;10465009;28;20456;-79
2022/06/14 04:51:18;;;;;;;8.43;4.95;;;;;;;6.94;100.00;102203.56;10465358;28;20158;-78
2022/06/14 04:56:22;;;;;;;11.52;6.47;;;;;;;7.29;100.00;102196.06;10449792;28;20044;-80
2022/06/14 05:01:28;;;;;;;12.65;4.72;;;;;;;7.69;99.07;102201.03;10419445;28;20464;-79
2022/06/14 05:07:01;;;;;;;9.27;4.20;;;;;;;8.47;94.13;102207.09;10441593;28;20082;-81
2022/06/14 05:12:13;;;;;;;7.03;4.47;;;;;;;9.57;89.01;102199.66;10440250;28;20037;-77
2022/06/14 05:17:17;;;;;;;;;;;;;;;10.64;81.17;102201.97;10440714;28;20059;-76
2022/06/14 05:22:30;;;;;;;10.55;4.38;;;;;;;12.02;77.29;102204.84;10440776;28;19971;-76
2022/06/14 05:27:45;;;;;;;10.30;4.45;;;;;;;13.10;72.74;102185.94;10422115;28;20048;-79
2022/06/14 05:33:11;;;;;;;11.02;5.63;;;;;;;14.30;70.16;102186.47;10439977;28;20036;-80
2022/06/14 05:38:14;;;;;;;9.82;4.50;;;;;;;15.41;67.10;102196.53;10379418;28;20041;-80
2022/06/14 05:43:48;;;;;;;13.05;5.82;;;;;;;16.22;64.44;102202.06;10393166;28;20033;-80
2022/06/14 05:48:52;;;;;;;10.00;3.85;;;;;;;17.46;58.01;102187.16;10433906;28;20401;-80
2022/06/14 05:53:57;;;;;;;9.23;5.05;;;;;;;18.33;56.57;102185.19;10398611;28;20558;-84
2022/06/14 05:59:39;;;;;;;9.50;4.35;;;;;;;19.24;52.85;102183.88;10443067;28;20503;-81
2022/06/14 06:04:50;;;;;;;18.63;10.75;;;;;;;19.78;51.24;102182.03;10424922;28;20068;-79
2022/06/14 06:09:55;;;;;;;8.75;4.32;;;;;;;20.25;49.77;102182.56;10439384;28;20095;-77
2022/06/14 06:15:02;;;;;;;12.25;4.72;;;;;;;20.74;46.29;102182.09;10423544;28;20511;-77
2022/06/14 06:20:07;;;;;;;11.23;3.75;;;;;;;21.25;46.05;102185.19;10399278;28;20123;-79
2022/06/14 06:25:27;;;;;;;7.55;3.17;;;;;;;21.64;40.64;102191.47;10392169;28;20485;-78
2022/06/14 06:30:38;;;;;;;9.63;3.58;;;;;;;21.96;41.02;102189.50;10397530;28;20060;-76
2022/06/14 06:35:55;;;;;;;;;;;;;;;23.02;37.55;102189.78;10415621;28;20044;-77
2022/06/14 06:46:22;;;;;;;8.93;4.50;;;;;;;22.85;41.13;102204.59;10407097;28;20478;-76
2022/06/14 06:51:24;;;;;;;6.83;2.63;;;;;;;22.89;38.73;102214.47;10389596;28;20120;-76
2022/06/14 06:56:28;;;;;;;9.35;4.00;;;;;;;23.10;36.31;102211.25;10427368;28;20033;-76
2022/06/14 07:01:32;;;;;;;12.75;4.00;;;;;;;23.29;38.84;102209.84;10429615;28;20403;-84
2022/06/14 07:06:37;;;;;;;7.82;2.50;;;;;;;24.16;35.16;102213.75;10387907;28;20065;-77
2022/06/14 07:11:42;;;;;;;6.97;2.50;;;;;;;24.20;34.31;102212.00;10378645;28;20046;-74
2022/06/14 07:17:02;;;;;;;6.28;2.22;;;;;;;23.80;37.80;102204.34;10344968;28;20410;-74
2022/06/14 07:22:37;;;;;;;17.85;3.20;;;;;;;23.20;36.94;102206.97;10387797;28;20171;-74
2022/06/14 07:27:46;;;;;;;8.38;4.65;;;;;;;24.42;34.95;102201.56;10349015;28;20065;-76
2022/06/14 07:32:49;;;;;;;9.00;3.20;;;;;;;24.91;33.07;102194.03;10400626;28;20041;-77
2022/06/14 07:37:53;;;;;;;8.15;2.83;;;;;;;24.46;32.36;102190.91;10387328;28;20044;-77
2022/06/14 07:43:17;;;;;;;3.92;2.05;;;;;;;24.79;32.68;102185.91;10414939;28;20528;-76
2022/06/14 07:48:30;;;;;;;6.80;2.28;;;;;;;24.64;33.52;102198.22;10382875;28;20179;-77
2022/06/14 07:54:21;;;;;;;10.57;3.95;;;;;;;25.30;32.75;102189.00;10410611;28;20056;-77
2022/06/14 07:59:24;;;;;;;7.38;2.22;;;;;;;25.49;31.75;102191.84;10277278;28;20055;-76
2022/06/14 08:04:32;;;;;;;9.88;2.53;;;;;;;25.95;33.09;102189.41;10377755;28;20040;-76
2022/06/14 08:09:58;;;;;;;14.40;2.67;;;;;;;24.54;33.63;102192.78;10430550;28;20051;-77
2022/06/14 08:15:05;;;;;;;6.28;2.40;;;;;;;25.28;30.76;102184.50;10481847;28;20048;-75
2022/06/14 08:20:28;;;;;;;8.23;2.60;;;;;;;24.06;32.60;102174.41;10446492;28;20506;-76
2022/06/14 08:25:31;;;;;;;8.43;2.22;;;;;;;25.12;31.05;102171.00;10406696;28;20403;-75
2022/06/14 08:30:37;;;;;;;5.20;1.90;;;;;;;25.06;31.80;102166.50;10381080;28;20036;-75
2022/06/14 08:35:54;;;;;;;8.98;2.42;;;;;;;24.82;33.61;102169.00;10411059;28;20025;-74
2022/06/14 08:41:06;;;;;;;6.32;2.47;;;;;;;26.08;31.27;102160.84;10442644;28;20036;-74
2022/06/14 08:46:49;;;;;;;8.20;3.03;;;;;;;27.17;31.54;102160.13;10439440;28;20111;-74
2022/06/14 08:52:35;;;;;;;8.75;2.65;;;;;;;26.89;28.44;102166.41;10328701;28;20046;-77
2022/06/14 08:57:40;;;;;;;31.23;22.17;;;;;;;24.60;33.17;102158.06;10414282;28;20045;-76
2022/06/14 09:02:59;;;;;;;11.35;4.43;;;;;;;23.67;37.06;102162.28;10440974;28;20479;-76
2022/06/14 09:08:25;;;;;;;12.65;3.30;;;;;;;25.43;30.60;102165.88;10479289;28;20083;-76
2022/06/14 09:14:03;;;;;;;6.40;1.90;;;;;;;25.10;31.26;102164.75;10480597;28;20062;-77
2022/06/14 09:19:37;;;;;;;6.78;2.50;;;;;;;25.74;30.17;102163.38;10419171;28;20040;-76
2022/06/14 09:25:35;;;;;;;8.75;3.22;;;;;;;26.51;31.28;102160.09;10439563;28;20033;-76
2022/06/14 09:30:55;;;;;;;4.68;2.05;;;;;;;25.54;30.77;102154.34;10343606;28;20445;-77
2022/06/14 09:36:11;;;;;;;5.20;1.92;;;;;;;26.73;30.65;102144.00;10433963;28;20082;-76
2022/06/14 09:41:32;;;;;;;12.98;2.40;;;;;;;25.88;30.20;102141.09;10478720;28;20369;-76
2022/06/14 09:46:38;;;;;;;;;;;;;;;25.75;30.50;102142.84;10468635;28;20048;-76
2022/06/14 09:52:00;;;;;;;6.57;2.47;;;;;;;26.49;32.79;102139.50;10461285;28;19928;-76
2022/06/14 09:57:19;;;;;;;5.03;1.70;;;;;;;27.51;30.05;102131.41;10473258;28;20443;-77
2022/06/14 10:02:28;;;;;;;8.35;2.92;;;;;;;26.86;31.32;102130.63;10450996;28;20396;-77
2022/06/14 10:07:47;;;;;;;8.13;2.28;;;;;;;26.18;33.47;102115.28;10425275;28;20045;-77
2022/06/14 10:13:17;;;;;;;8.68;1.80;;;;;;;27.51;30.74;102117.09;10419810;28;20455;-79
2022/06/14 10:18:17;;;;;;;8.52;2.88;;;;;;;27.28;28.33;102120.72;10427317;28;20116;-78
2022/06/14 10:23:43;;;;;;;6.70;1.90;;;;;;;27.25;29.84;102124.28;10462227;28;20036;-76
2022/06/14 10:29:09;;;;;;;9.07;1.92;;;;;;;27.49;29.97;102103.63;10423872;28;20388;-76
2022/06/14 10:34:27;;;;;;;7.03;2.53;;;;;;;27.35;31.73;102098.28;10431761;28;20044;-77
2022/06/14 10:39:41;;;;;;;7.05;2.25;;;;;;;28.26;27.92;102090.72;10446675;28;20040;-77
2022/06/14 10:44:42;;;;;;;6.45;1.80;;;;;;;26.96;29.04;102089.44;10476679;28;20450;-77
2022/06/14 10:50:24;;;;;;;6.73;2.10;;;;;;;26.86;28.60;102088.53;10509144;28;20040;-76
2022/06/14 10:56:02;;;;;;;11.20;3.25;;;;;;;26.33;30.71;102085.81;10433790;28;20271;-77
2022/06/14 11:01:21;;;;;;;6.03;1.95;;;;;;;26.49;32.41;102072.41;10457843;28;20053;-78
2022/06/14 11:06:46;;;;;;;5.78;2.20;;;;;;;26.99;28.82;102069.72;10454275;28;20399;-79
2022/06/14 11:12:05;;;;;;;6.40;2.78;;;;;;;26.60;28.47;102067.03;10460613;28;20494;-76
2022/06/14 11:17:47;;;;;;;7.38;2.75;;;;;;;26.80;29.41;102061.66;10442716;28;20095;-76
2022/06/14 11:22:56;;;;;;;6.30;2.60;;;;;;;27.32;29.31;102046.34;10455516;28;20056;-76
2022/06/14 11:28:18;;;;;;;4.80;2.22;;;;;;;27.71;28.36;102033.63;10476783;28;20098;-77
2022/06/14 11:33:34;;;;;;;6.50;2.25;;;;;;;27.88;29.71;102024.56;10467663;28;20145;-77
2022/06/14 11:39:04;;;;;;;7.63;2.45;;;;;;;26.36;31.68;102028.59;10479621;28;20182;-77
2022/06/14 11:44:42;;;;;;;5.50;2.25;;;;;;;26.99;28.76;102013.31;10450385;28;20048;-77
2022/06/14 11:49:51;;;;;;;5.50;2.13;;;;;;;27.47;28.17;102018.50;10451436;28;20064;-77
2022/06/14 11:54:54;;;;;;;7.00;2.05;;;;;;;27.29;27.42;102004.25;10467891;28;20036;-77
2022/06/14 12:00:07;;;;;;;12.50;3.05;;;;;;;27.53;27.33;102008.63;10487231;28;20487;-78
2022/06/14 12:05:45;;;;;;;13.05;3.75;;;;;;;27.38;28.33;102019.44;10475273;28;20036;-77
2022/06/14 12:10:52;;;;;;;6.03;1.70;;;;;;;27.29;28.83;102009.63;10466753;28;20594;-77
2022/06/14 12:16:15;;;;;;;6.50;2.38;;;;;;;27.62;29.60;101998.72;10451178;28;20569;-77
2022/06/14 12:21:24;;;;;;;5.45;1.45;;;;;;;28.07;27.95;101998.44;10494342;28;20066;-77
2022/06/14 12:26:37;;;;;;;11.13;2.95;;;;;;;27.40;27.42;101990.75;10421152;28;20128;-76
2022/06/14 12:31:59;;;;;;;7.40;1.73;;;;;;;28.20;25.14;101975.03;10467369;28;20039;-76
2022/06/14 12:37:31;;;;;;;7.18;1.90;;;;;;;27.74;26.79;101968.19;10433147;28;21568;-75
2022/06/14 12:42:41;;;;;;;9.75;2.97;;;;;;;27.69;26.16;101962.84;10488943;28;20040;-76
2022/06/14 12:47:48;;;;;;;16.08;2.95;;;;;;;27.37;26.58;101962.13;10465656;28;20025;-77
2022/06/14 12:52:54;;;;;;;3.53;1.40;;;;;;;27.28;26.43;101954.09;10508201;28;20059;-77
2022/06/14 12:58:31;;;;;;;7.38;1.60;;;;;;;27.06;26.77;101958.66;10459304;28;20504;-77
2022/06/14 13:03:52;;;;;;;11.30;2.05;;;;;;;26.86;27.76;101956.06;10415088;28;20135;-77
2022/06/14 13:09:24;;;;;;;4.05;1.25;;;;;;;25.87;27.40;101955.19;10464880;28;20132;-76
2022/06/14 13:14:30;;;;;;;5.03;1.70;;;;;;;26.40;27.24;101952.56;10428605;28;20504;-77
2022/06/14 13:19:52;;;;;;;2.67;1.33;;;;;;;27.05;26.20;101941.66;10432285;28;20275;-77
2022/06/14 13:25:05;;;;;;;5.53;1.90;;;;;;;27.65;25.93;101929.72;10476538;28;20523;-82
2022/06/14 13:30:23;;;;;;;5.57;1.92;;;;;;;27.60;24.87;101920.78;10497140;28;20067;-76
2022/06/14 13:35:47;;;;;;;4.10;1.27;;;;;;;26.78;25.40;101927.41;10465047;28;20434;-74
2022/06/14 13:41:02;;;;;;;5.38;2.22;;;;;;;26.46;26.44;101925.69;10473120;28;20028;-75
2022/06/14 13:46:47;;;;;;;7.00;2.13;;;;;;;26.70;25.53;101922.94;10484079;28;20036;-74
2022/06/14 13:51:58;;;;;;;3.65;1.17;;;;;;;26.86;28.92;101908.59;10401332;28;20802;-76
2022/06/14 13:57:17;;;;;;;5.17;1.90;;;;;;;26.27;27.28;101911.41;10421720;28;20090;-77
2022/06/14 14:02:39;;;;;;;7.22;1.95;;;;;;;25.56;28.73;101901.56;10409200;28;20116;-76
2022/06/14 14:07:48;;;;;;;;;;;;;;;26.12;27.98;101901.56;10448621;28;20480;-77
2022/06/14 14:12:59;;;;;;;4.85;1.95;;;;;;;26.41;27.92;101886.34;10462958;28;19991;-76
2022/06/14 14:18:09;;;;;;;4.60;1.52;;;;;;;27.24;27.11;101888.72;10412305;28;20033;-78
2022/06/14 14:23:36;;;;;;;4.80;1.80;;;;;;;26.97;27.57;101882.59;10489298;28;20075;-78
2022/06/14 14:28:48;;;;;;;4.20;1.60;;;;;;;26.32;29.93;101872.03;10405876;28;20025;-78
2022/06/14 14:34:02;;;;;;;5.85;2.72;;;;;;;24.64;30.40;101870.84;10446567;28;20120;-78
2022/06/14 14:39:05;;;;;;;5.75;2.05;;;;;;;24.33;30.08;101868.00;10408029;28;20514;-77
2022/06/14 14:44:11;;;;;;;8.60;1.90;;;;;;;23.84;30.69;101866.72;10462735;28;20483;-77
2022/06/14 14:49:25;;;;;;;5.72;1.67;;;;;;;23.68;30.66;101867.47;10486455;28;20396;-76
2022/06/14 14:54:39;;;;;;;7.03;1.92;;;;;;;24.22;31.61;101857.22;10469808;28;20039;-77
2022/06/14 14:59:45;;;;;;;6.43;1.50;;;;;;;23.44;33.12;101855.66;10421192;28;20201;-76
2022/06/14 15:10:13;;;;;;;;;;;;;;;21.87;34.45;101850.88;10429019;28;20404;-76
2022/06/14 15:15:14;;;;;;;5.90;1.80;;;;;;;21.59;36.32;101842.38;10490767;28;19920;-75
2022/06/14 15:20:14;;;;;;;5.70;2.13;;;;;;;21.20;36.30;101831.06;10492917;28;20051;-77
2022/06/14 15:25:17;;;;;;;7.55;1.75;;;;;;;21.12;36.43;101827.34;10447638;28;20072;-77
2022/06/14 15:30:32;;;;;;;4.60;1.60;;;;;;;21.26;37.84;101822.28;10423972;28;20183;-77
2022/06/14 15:35:33;;;;;;;6.93;2.08;;;;;;;21.23;35.18;101800.91;10485036;28;20040;-77
2022/06/14 15:40:33;;;;;;;5.07;1.75;;;;;;;21.17;38.23;101800.81;10428464;28;20097;-77
2022/06/14 15:45:45;;;;;;;10.38;1.80;;;;;;;21.16;35.67;101799.94;10445913;28;20124;-77
2022/06/14 15:50:46;;;;;;;4.67;1.77;;;;;;;21.09;35.50;101793.56;10467811;28;20073;-78
2022/06/14 15:55:50;;;;;;;3.67;1.80;;;;;;;20.85;36.37;101791.34;10410307;28;20052;-78
2022/06/14 16:01:05;;;;;;;13.27;6.40;;;;;;;20.77;37.98;101788.50;10443950;28;20044;-77
2022/06/14 16:06:09;;;;;;;4.18;1.80;;;;;;;20.76;36.64;101775.19;10470041;28;20379;-76
2022/06/14 16:11:12;;;;;;;5.10;1.45;;;;;;;20.47;39.52;101772.81;10448405;28;20122;-77
2022/06/14 16:16:28;;;;;;;5.63;1.48;;;;;;;20.38;38.50;101768.19;10450218;28;20114;-77
2022/06/14 16:21:30;;;;;;;8.13;2.03;;;;;;;20.46;38.98;101763.06;10481217;28;20059;-77
2022/06/14 16:26:58;;;;;;;5.28;1.85;;;;;;;20.47;37.69;101756.88;10461362;28;20047;-77
2022/06/14 16:32:06;;;;;;;11.52;2.72;;;;;;;20.39;37.97;101746.06;10486251;28;20468;-77
2022/06/14 16:37:21;;;;;;;4.50;1.58;;;;;;;20.31;39.23;101743.25;10411719;28;20045;-75
2022/06/14 16:42:44;;;;;;;7.22;1.35;;;;;;;20.30;38.02;101737.88;10412447;28;20097;-76
2022/06/14 16:48:00;;;;;;;2.35;1.38;;;;;;;20.27;39.46;101737.81;10428023;28;20526;-78
2022/06/14 16:53:12;;;;;;;4.97;2.78;;;;;;;20.23;36.65;101728.91;10481004;28;20123;-78
2022/06/14 16:58:40;;;;;;;4.10;1.60;;;;;;;20.06;38.41;101725.84;10463808;28;20534;-78
2022/06/14 17:03:49;;;;;;;3.72;2.10;;;;;;;19.99;39.28;101723.94;10410092;28;20056;-78
2022/06/14 17:09:07;;;;;;;5.38;1.48;;;;;;;19.97;41.28;101729.22;10462296;28;20048;-77
2022/06/14 17:14:35;;;;;;;6.35;1.70;;;;;;;19.90;39.61;101728.16;10462500;28;20036;-77
2022/06/14 17:19:47;;;;;;;11.23;3.83;;;;;;;19.87;38.54;101717.44;10461981;28;20044;-77
2022/06/14 17:25:01;;;;;;;5.90;1.60;;;;;;;19.79;38.96;101717.28;10463813;28;20036;-78
2022/06/14 17:30:08;;;;;;;6.35;2.13;;;;;;;19.72;40.58;101717.09;10462076;28;20123;-77
2022/06/14 17:35:12;;;;;;;3.78;1.83;;;;;;;19.48;41.72;101719.22;10466220;28;20044;-78
2022/06/14 17:40:21;;;;;;;8.38;2.78;;;;;;;19.12;43.99;101712.13;10460417;28;20128;-75
2022/06/14 17:45:24;;;;;;;4.32;1.17;;;;;;;19.04;41.47;101709.25;10437769;28;20044;-74
2022/06/14 17:50:30;;;;;;;7.63;1.88;;;;;;;19.06;40.79;101714.63;10421298;28;20033;-75
2022/06/14 17:56:04;;;;;;;5.35;1.48;;;;;;;18.99;43.80;101705.59;10455736;28;20049;-75
2022/06/14 18:01:46;;;;;;;5.85;1.42;;;;;;;18.78;41.82;101704.13;10391374;28;20025;-75
2022/06/14 18:06:51;;;;;;;5.65;2.10;;;;;;;18.63;41.92;101709.00;10485866;28;20670;-75
2022/06/14 18:11:56;;;;;;;4.97;1.67;;;;;;;18.56;43.88;101707.94;10490238;28;20044;-75
2022/06/14 18:16:57;;;;;;;5.13;1.60;;;;;;;18.38;46.84;101703.00;10470796;28;20033;-75
2022/06/14 18:21:58;;;;;;;8.63;3.53;;;;;;;18.25;44.21;101708.81;10438920;28;20148;-75
2022/06/14 18:27:03;;;;;;;5.05;1.33;;;;;;;18.08;46.89;101705.66;10446255;28;20039;-75
2022/06/14 18:32:08;;;;;;;4.88;2.97;;;;;;;17.81;48.84;101717.19;10487640;28;20242;-75
2022/06/14 18:37:29;;;;;;;3.40;2.25;;;;;;;17.46;49.71;101709.88;10450512;28;20071;-76
2022/06/14 18:42:29;;;;;;;5.75;1.10;;;;;;;17.12;51.34;101711.41;10455848;28;20044;-75
2022/06/14 18:47:34;;;;;;;5.65;1.52;;;;;;;16.76;53.69;101710.16;10478680;28;20558;-75
2022/06/14 18:52:36;;;;;;;6.82;2.58;;;;;;;16.51;56.14;101714.56;10454202;28;20056;-76
2022/06/14 18:57:44;;;;;;;;;;;;;;;16.20;55.97;101709.84;10453301;28;20033;-75
2022/06/14 19:02:45;;;;;;;5.30;2.20;;;;;;;15.94;56.32;101705.38;10470763;28;19951;-76
2022/06/14 19:08:11;;;;;;;4.63;2.40;;;;;;;15.66;56.71;101698.97;10440400;28;20136;-76
2022/06/14 19:13:17;;;;;;;6.30;2.20;;;;;;;15.40;60.21;101700.53;10463318;28;20045;-76
2022/06/14 19:18:30;;;;;;;4.68;1.92;;;;;;;15.12;62.00;101709.94;10470809;28;20494;-76
2022/06/14 19:23:52;;;;;;;5.32;2.03;;;;;;;14.78;63.10;101708.47;10471030;28;20047;-76
2022/06/14 19:29:17;;;;;;;6.35;2.75;;;;;;;14.53;64.36;101713.56;10487933;28;20116;-77
2022/06/14 19:34:55;;;;;;;5.93;2.20;;;;;;;14.31;65.61;101714.28;10467221;28;20040;-76
2022/06/14 19:39:59;;;;;;;7.18;3.00;;;;;;;14.09;65.19;101712.41;10469441;28;20040;-76
2022/06/14 19:45:10;;;;;;;9.45;2.97;;;;;;;13.93;67.37;101727.47;10396058;28;20037;-76
2022/06/14 19:50:20;;;;;;;6.25;2.05;;;;;;;13.74;67.32;101730.94;10441313;28;20045;-76
2022/06/14 19:55:32;;;;;;;5.18;2.90;;;;;;;13.50;68.55;101738.53;10428168;28;20044;-76
2022/06/14 20:00:37;;;;;;;5.13;2.37;;;;;;;13.21;68.54;101745.84;10468215;28;20043;-77
2022/06/14 20:05:42;;;;;;;7.30;2.80;;;;;;;12.99;70.65;101738.56;10446961;28;20041;-77
2022/06/14 20:10:48;;;;;;;4.75;1.90;;;;;;;12.77;71.41;101742.69;10468125;28;20039;-77
2022/06/14 20:16:02;;;;;;;6.38;2.38;;;;;;;12.59;73.91;101750.53;10448357;28;20640;-77
2022/06/14 20:21:04;;;;;;;4.30;2.20;;;;;;;12.39;73.90;101750.34;10427120;28;20108;-76
2022/06/14 20:26:07;;;;;;;5.55;2.22;;;;;;;12.28;74.91;101756.72;10426887;28;20044;-76
2022/06/14 20:31:09;;;;;;;4.05;1.95;;;;;;;12.16;75.84;101762.19;10410850;28;20120;-76
2022/06/14 20:36:21;;;;;;;3.03;2.22;;;;;;;11.94;76.45;101765.31;10448256;28;20036;-77
2022/06/14 20:41:22;;;;;;;11.10;2.47;;;;;;;11.78;77.85;101755.66;10466053;28;20526;-77
2022/06/14 20:46:24;;;;;;;6.95;3.28;;;;;;;11.64;78.54;101758.41;10465122;28;20052;-77
2022/06/14 20:51:25;;;;;;;6.45;2.42;;;;;;;11.51;79.49;101763.75;10449999;28;20043;-77
2022/06/14 20:56:26;;;;;;;5.32;2.13;;;;;;;11.41;80.53;101767.56;10467276;28;20067;-77
2022/06/14 21:01:26;;;;;;;4.90;2.88;;;;;;;11.30;80.47;101749.50;10448782;28;20688;-77
2022/06/14 21:06:27;;;;;;;7.45;2.20;;;;;;;11.24;81.39;101759.59;10465454;28;20036;-77
2022/06/14 21:11:45;;;;;;;9.82;2.88;;;;;;;11.19;82.04;101754.88;10450306;28;20408;-77
2022/06/14 21:16:57;;;;;;;8.57;3.00;;;;;;;11.19;83.76;101754.88;10446110;28;20404;-77
2022/06/14 21:21:58;;;;;;;4.72;1.88;;;;;;;11.08;84.97;101751.66;10465171;28;20043;-77
2022/06/14 21:27:10;;;;;;;8.13;3.55;;;;;;;10.97;85.72;101756.22;10447703;28;20036;-77
2022/06/14 21:32:10;;;;;;;6.87;3.00;;;;;;;10.83;85.82;101747.56;10434230;28;20477;-77
2022/06/14 21:37:31;;;;;;;7.75;3.17;;;;;;;10.68;85.50;101751.03;10431828;28;20037;-77
2022/06/14 21:42:32;;;;;;;6.85;4.72;;;;;;;10.69;86.77;101734.53;10384663;28;20041;-77
2022/06/14 21:47:32;;;;;;;8.23;3.08;;;;;;;10.64;87.20;101741.19;10399342;28;20042;-77
2022/06/14 21:52:37;;;;;;;6.07;3.42;;;;;;;10.52;87.84;101748.28;10422421;28;20051;-76
2022/06/14 21:57:46;;;;;;;10.75;3.75;;;;;;;10.48;88.87;101744.56;10408106;28;20049;-77
2022/06/14 22:02:48;;;;;;;30.05;4.25;;;;;;;10.43;89.25;101740.75;10431184;28;20041;-77
2022/06/14 22:07:48;;;;;;;6.80;5.30;;;;;;;10.31;89.24;101743.50;10431675;28;20505;-77
2022/06/14 22:12:49;;;;;;;10.70;3.80;;;;;;;10.24;89.91;101747.41;10474628;28;20133;-77
2022/06/14 22:17:49;;;;;;;11.52;5.28;;;;;;;10.21;89.67;101746.34;10420706;28;20442;-77
2022/06/14 22:22:50;;;;;;;11.00;3.25;;;;;;;10.13;89.78;101744.13;10451962;28;20067;-77
2022/06/14 22:27:50;;;;;;;10.43;3.47;;;;;;;10.05;90.19;101747.06;10442715;28;20090;-77
2022/06/14 22:32:51;;;;;;;9.73;3.78;;;;;;;9.99;90.63;101747.59;10462992;28;20193;-77
2022/06/14 22:37:52;;;;;;;7.65;4.18;;;;;;;9.95;90.63;101749.09;10449846;28;20060;-76
2022/06/14 22:42:52;;;;;;;6.93;4.43;;;;;;;9.90;90.91;101747.00;10487230;28;20052;-77
2022/06/14 22:47:53;;;;;;;9.45;5.22;;;;;;;9.86;91.22;101739.75;10490021;28;20041;-77
2022/06/14 22:52:54;;;;;;;9.20;4.53;;;;;;;9.90;91.67;101739.16;10445923;28;20128;-76
2022/06/14 22:58:05;;;;;;;10.00;4.28;;;;;;;9.91;91.92;101730.50;10437141;28;20042;-77
2022/06/14 23:03:05;;;;;;;14.20;5.85;;;;;;;9.86;91.52;101726.69;10453849;28;20506;-77
2022/06/14 23:08:06;;;;;;;10.23;4.80;;;;;;;9.85;91.97;101733.59;10471142;28;20037;-77
2022/06/14 23:13:07;;;;;;;8.60;4.93;;;;;;;9.91;92.36;101727.88;10471213;28;20116;-77
2022/06/14 23:18:07;;;;;;;10.32;4.68;;;;;;;9.92;92.90;101722.72;10415688;28;20147;-76
2022/06/14 23:23:08;;;;;;;10.57;5.30;;;;;;;9.86;92.61;101719.72;10442722;28;20557;-77
2022/06/14 23:28:08;;;;;;;8.07;4.80;;;;;;;9.76;92.44;101713.03;10460538;28;20037;-77
2022/06/14 23:33:09;;;;;;;11.80;5.28;;;;;;;9.64;92.88;101713.13;10461796;28;20037;-77
2022/06/14 23:38:09;;;;;;;10.48;5.00;;;;;;;9.59;93.08;101714.53;10457797;28;20036;-77
2022/06/14 23:43:10;;;;;;;9.98;7.00;;;;;;;9.64;93.25;101704.38;10464957;28;20041;-77
2022/06/14 23:48:10;;;;;;;13.32;6.15;;;;;;;9.62;93.10;101693.81;10481564;28;20128;-77
2022/06/14 23:53:11;;;;;;;8.20;5.68;;;;;;;9.53;93.41;101696.75;10459883;28;20079;-77
2022/06/14 23:58:13;;;;;;;13.55;6.68;;;;;;;9.48;93.75;101689.41;10452612;28;20045;-76
